Terminal Aerodrome Forecast
Issued by NWS

Current Version | Previous Version | Text Only | Print | Product List | Glossary Off
Versions: 1 2 3 4 5 6 7 8 9 10 11 12 13 14 15 16 17 18 19 20 21

070
FTUS41 KILN 281731
TAFLCK
TAF
KLCK 281731Z 2818/2918 20008KT P6SM VCSH SCT040 BKN150
      TEMPO 2819/2821 4SM -TSRA BKN040CB OVC100
     FM282100 22009KT P6SM VCTS BKN040CB BKN120
     FM282200 19003KT P6SM BKN060 BKN200
     FM291400 20008KT P6SM SCT100 BKN200=

USA.gov is the U.S. government's official web portal to all federal, state and local government web resources and services.